This is the latest recevied weather packets stored in our database for station/object I5EKX-13. If no packets are shown the sender has not sent any weather packets the latest 10 day(s).
| Time | Temp. | Humidity | Pressure | Rain* | Wind** | Luminosity | Snow |
|---|---|---|---|---|---|---|---|
| 1777800707 | 23.89° C | 54% | 1015.9 hPa | - | - | - | - |
| 1777800423 | 24.44° C | 54% | 1016 hPa | - | - | - | - |
| 1777800181 | 24.44° C | 54% | 1015.9 hPa | - | - | - | - |
| 1777798963 | 21.67° C | 60% | 1015.9 hPa | - | - | - | - |
| 1777797760 | 21.67° C | 59% | 1015.8 hPa | - | - | - | - |
| 1777796556 | 22.78° C | 59% | 1015.5 hPa | - | - | - | - |
| 1777795352 | 22.22° C | 57% | 1015.5 hPa | - | - | - | - |
| 1777794148 | 22.22° C | 58% | 1015.4 hPa | - | - | - | - |
| 1777792945 | 21.11° C | 60% | 1015.5 hPa | - | - | - | - |
| 1777791741 | 20.56° C | 60% | 1015.6 hPa | - | - | - | - |
| 1777790537 | 19.44° C | 61% | 1015.4 hPa | - | - | - | - |
| 1777788128 | 16.67° C | 79% | 1015.4 hPa | - | - | - | - |
| 1777786925 | 13.89° C | 82% | 1015.4 hPa | - | - | - | - |
| 1777785721 | 12.78° C | 82% | 1015.5 hPa | - | - | - | - |
| 1777784517 | 11.11° C | 80% | 1015.6 hPa | - | - | - | - |
| 1777783314 | 10° C | 81% | 1015.5 hPa | - | - | - | - |
| 1777782110 | 9.44° C | 81% | 1015.6 hPa | - | - | - | - |
| 1777780906 | 10° C | 80% | 1015.4 hPa | - | - | - | - |
| 1777779702 | 9.44° C | 80% | 1015.4 hPa | - | - | - | - |
| 1777778499 | 9.44° C | 81% | 1015.4 hPa | - | - | - | - |
| 1777777295 | 10° C | 80% | 1015.4 hPa | - | - | - | - |
| 1777776091 | 10° C | 81% | 1015.4 hPa | - | - | - | - |
| 1777774887 | 10° C | 80% | 1015.4 hPa | - | - | - | - |
| 1777773683 | 10.56° C | 80% | 1015.4 hPa | - | - | - | - |
| 1777772479 | 10.56° C | 81% | 1015.4 hPa | - | - | - | - |
* Rain since midnight (hover to see other rain measurements)
** Current wind speed in m/s (hover to see current wind gust speed)